createdAt,value
2023-04-12T00:04:24.940Z,100603.25
2023-04-12T00:09:31.085Z,100603.41
2023-04-12T00:14:36.515Z,100600.84
2023-04-12T00:19:45.195Z,100603.67
2023-04-12T00:24:50.701Z,100605.33
2023-04-12T00:29:56.586Z,100595.44
2023-04-12T00:35:02.124Z,100601.62
2023-04-12T00:40:10.189Z,100595.67
2023-04-12T00:45:16.452Z,100592.45
2023-04-12T00:50:23.505Z,100593.00
2023-04-12T00:55:29.043Z,100595.98
2023-04-12T01:00:35.775Z,100600.45
2023-04-12T01:05:44.315Z,100591.59
2023-04-12T01:10:59.109Z,100591.28
2023-04-12T01:16:17.322Z,100578.52
2023-04-12T01:21:43.774Z,100572.69
2023-04-12T01:26:53.237Z,100577.01
2023-04-12T01:32:04.951Z,100562.98
2023-04-12T01:37:11.531Z,100560.95
2023-04-12T01:42:21.886Z,100552.03
2023-04-12T01:47:28.129Z,100546.33
2023-04-12T01:52:36.729Z,100546.39
2023-04-12T01:57:45.048Z,100545.86
2023-04-12T02:02:51.464Z,100544.11
2023-04-12T02:07:58.308Z,100541.70
2023-04-12T02:13:04.597Z,100546.16
2023-04-12T02:18:10.085Z,100537.63
2023-04-12T02:23:16.373Z,100526.22
2023-04-12T02:28:23.344Z,100527.06
2023-04-12T02:33:29.744Z,100523.41
2023-04-12T02:38:36.576Z,100528.69
2023-04-12T02:43:43.272Z,100518.18
2023-04-12T02:48:49.588Z,100503.40
2023-04-12T02:53:56.318Z,100500.98
2023-04-12T02:59:03.635Z,100499.09
2023-04-12T03:04:17.146Z,100496.80
2023-04-12T03:09:25.183Z,100496.41
2023-04-12T03:14:32.329Z,100484.72
2023-04-12T03:19:38.493Z,100483.78
2023-04-12T03:24:46.164Z,100481.37
2023-04-12T03:29:53.261Z,100478.07
2023-04-12T03:35:00.934Z,100474.99
2023-04-12T03:40:08.172Z,100476.19
2023-04-12T03:45:14.064Z,100474.91
2023-04-12T03:50:22.291Z,100482.02
2023-04-12T03:55:29.480Z,100478.70
2023-04-12T04:00:36.025Z,100472.24
2023-04-12T04:05:46.299Z,100474.04
2023-04-12T04:10:52.984Z,100463.52
2023-04-12T04:16:10.023Z,100465.38
2023-04-12T04:21:17.106Z,100468.06
2023-04-12T04:26:24.534Z,100460.89
2023-04-12T04:31:37.700Z,100465.33
2023-04-12T04:36:45.071Z,100457.56
2023-04-12T04:41:53.837Z,100454.18
2023-04-12T04:47:10.100Z,100450.80
2023-04-12T04:52:18.110Z,100443.83
2023-04-12T04:57:26.831Z,100450.11
2023-04-12T05:02:37.069Z,100453.66
2023-04-12T05:07:44.605Z,100452.50
2023-04-12T05:12:50.235Z,100445.83
2023-04-12T05:17:57.966Z,100441.73
2023-04-12T05:23:03.646Z,100441.69
2023-04-12T05:28:11.075Z,100439.30
2023-04-12T05:33:16.869Z,100434.43
2023-04-12T05:38:24.191Z,100425.62
2023-04-12T05:43:31.526Z,100428.88
2023-04-12T05:48:37.197Z,100431.16
2023-04-12T05:53:42.794Z,100427.00
2023-04-12T05:58:49.500Z,100426.47
2023-04-12T06:03:55.810Z,100425.34
2023-04-12T06:09:02.697Z,100419.23
2023-04-12T06:14:11.205Z,100410.95
2023-04-12T06:19:16.089Z,100407.13
2023-04-12T06:24:21.628Z,100401.11
2023-04-12T06:29:27.224Z,100391.88
2023-04-12T06:34:34.521Z,100387.94
2023-04-12T06:39:42.891Z,100382.43
2023-04-12T06:44:48.340Z,100381.55
2023-04-12T06:49:56.303Z,100381.42
2023-04-12T06:55:01.959Z,100380.69
2023-04-12T07:00:08.985Z,100374.00
2023-04-12T07:05:15.940Z,100367.90
2023-04-12T07:10:21.358Z,100369.50
2023-04-12T07:15:26.954Z,100365.21
2023-04-12T07:20:32.472Z,100355.66
2023-04-12T07:25:40.766Z,100357.44
2023-04-12T07:30:46.433Z,100354.34
2023-04-12T07:35:51.909Z,100351.61
2023-04-12T07:40:57.829Z,100357.57
2023-04-12T07:46:08.244Z,100355.75
2023-04-12T07:51:14.283Z,100355.29
2023-04-12T07:56:19.782Z,100354.03
2023-04-12T08:01:25.224Z,100349.45
2023-04-12T08:06:33.025Z,100349.59
2023-04-12T08:11:38.765Z,100349.06
2023-04-12T08:16:44.268Z,100348.06
2023-04-12T08:21:49.832Z,100347.23
2023-04-12T08:26:56.260Z,100339.41
2023-04-12T08:32:05.321Z,100337.31
2023-04-12T08:37:10.809Z,100334.94
2023-04-12T08:42:17.621Z,100334.49
2023-04-12T08:47:24.407Z,100328.71
2023-04-12T08:52:30.526Z,100319.52
2023-04-12T08:57:41.488Z,100312.92
2023-04-12T09:02:49.156Z,100301.75
2023-04-12T09:07:54.905Z,100299.94
2023-04-12T09:13:01.444Z,100298.32
2023-04-12T09:18:16.620Z,100282.70
2023-04-12T09:23:24.996Z,100275.26
2023-04-12T09:28:31.561Z,100264.67
2023-04-12T09:33:39.550Z,100257.95
2023-04-12T09:38:48.089Z,100254.86
2023-04-12T09:43:53.615Z,100244.20
2023-04-12T09:49:00.347Z,100231.09
2023-04-12T09:54:09.174Z,100229.88
2023-04-12T09:59:16.716Z,100226.14
2023-04-12T10:04:22.919Z,100217.48
2023-04-12T10:09:28.960Z,100203.39
2023-04-12T10:14:34.616Z,100187.03
2023-04-12T10:19:42.038Z,100175.66
2023-04-12T10:24:47.717Z,100162.64
2023-04-12T10:29:53.485Z,100150.32
2023-04-12T10:35:00.962Z,100137.16
2023-04-12T10:40:07.634Z,100134.61
2023-04-12T10:45:35.490Z,100132.56
2023-04-12T10:50:41.236Z,100130.00
2023-04-12T10:55:47.391Z,100129.50
2023-04-12T11:01:04.697Z,100113.77
2023-04-12T11:06:24.074Z,100116.53
2023-04-12T11:11:40.029Z,100112.19
2023-04-12T11:17:09.591Z,100092.02
2023-04-12T11:22:17.076Z,100077.16
2023-04-12T11:27:23.733Z,100075.27
2023-04-12T11:32:31.579Z,100081.80
2023-04-12T11:37:37.304Z,100074.62
2023-04-12T11:42:43.339Z,100063.21
2023-04-12T11:47:48.932Z,100067.16
2023-04-12T11:52:54.946Z,100053.30
2023-04-12T11:58:01.612Z,100038.58
2023-04-12T12:03:08.685Z,100025.38
2023-04-12T12:08:15.147Z,100023.05
2023-04-12T12:13:20.840Z,100017.97
2023-04-12T12:18:29.486Z,100001.23
2023-04-12T12:23:35.770Z,99995.98
2023-04-12T12:28:41.721Z,99978.40
2023-04-12T12:33:47.637Z,99971.80
2023-04-12T12:38:55.073Z,99963.36
2023-04-12T12:44:01.812Z,99946.52
2023-04-12T12:49:07.351Z,99959.16
2023-04-12T12:54:12.852Z,99942.84
2023-04-12T12:59:18.301Z,99931.63
2023-04-12T13:04:23.990Z,99936.34
2023-04-12T13:09:29.664Z,99939.58
2023-04-12T13:14:35.791Z,99933.26
2023-04-12T13:19:41.290Z,99914.41
2023-04-12T13:24:47.028Z,99916.34
2023-04-12T13:29:52.611Z,99899.70
2023-04-12T13:34:58.062Z,99890.42
2023-04-12T13:40:04.815Z,99875.65
2023-04-12T13:45:11.526Z,99868.29
2023-04-12T13:50:17.012Z,99863.69
2023-04-12T13:55:22.740Z,99858.93
2023-04-12T14:00:28.326Z,99852.88
2023-04-12T14:05:33.758Z,99845.50
2023-04-12T14:10:39.200Z,99818.34
2023-04-12T14:15:44.708Z,99809.11
2023-04-12T14:20:52.754Z,99801.04
2023-04-12T14:25:58.262Z,99786.47
2023-04-12T14:31:06.169Z,99789.02
2023-04-12T14:36:11.300Z,99784.62
2023-04-12T14:41:17.319Z,99784.47
2023-04-12T14:46:23.858Z,99792.57
2023-04-12T14:51:30.395Z,99791.47
2023-04-12T14:56:43.860Z,99784.34
2023-04-12T15:01:44.266Z,99788.37
2023-04-12T15:06:49.830Z,99791.82
2023-04-12T15:11:57.057Z,99789.19
2023-04-12T15:17:02.730Z,99770.84
2023-04-12T15:22:08.224Z,99776.97
2023-04-12T15:27:13.945Z,99780.51
2023-04-12T15:32:19.533Z,99783.36
2023-04-12T15:37:25.805Z,99774.05
2023-04-12T15:42:31.332Z,99777.30
2023-04-12T15:47:37.537Z,99779.53
2023-04-12T15:52:44.355Z,99764.50
2023-04-12T15:57:50.024Z,99759.64
2023-04-12T16:02:57.963Z,99753.70
2023-04-12T16:08:04.234Z,99753.20
2023-04-12T16:13:11.260Z,99744.80
2023-04-12T16:18:18.129Z,99744.73
2023-04-12T16:23:23.788Z,99746.85
2023-04-12T16:28:29.758Z,99735.59
2023-04-12T16:33:35.259Z,99726.80
2023-04-12T16:38:41.272Z,99723.73
2023-04-12T16:43:47.038Z,99725.16
2023-04-12T16:48:52.479Z,99716.20
2023-04-12T16:53:59.402Z,99720.41
2023-04-12T16:59:05.213Z,99722.97
2023-04-12T17:04:11.966Z,99713.41
2023-04-12T17:09:17.981Z,99709.73
2023-04-12T17:14:23.508Z,99702.61
2023-04-12T17:19:28.954Z,99696.48
2023-04-12T17:24:34.469Z,99703.02
2023-04-12T17:29:41.463Z,99695.94
2023-04-12T17:34:47.110Z,99701.09
2023-04-12T17:39:53.595Z,99702.92
2023-04-12T17:44:59.173Z,99703.48
2023-04-12T17:50:05.412Z,99716.33
2023-04-12T17:55:12.954Z,99720.58
2023-04-12T18:00:19.417Z,99718.52
2023-04-12T18:05:24.271Z,99702.55
2023-04-12T18:10:30.418Z,99709.42
2023-04-12T18:15:36.431Z,99710.08
2023-04-12T18:20:42.260Z,99707.23
2023-04-12T18:25:47.971Z,99707.05
2023-04-12T18:30:55.497Z,99718.16
2023-04-12T18:36:00.673Z,99728.69
2023-04-12T18:41:06.316Z,99721.43
2023-04-12T18:46:18.940Z,99717.91
2023-04-12T18:51:24.831Z,99712.86
2023-04-12T18:56:30.629Z,99717.14
2023-04-12T19:01:37.051Z,99708.73
2023-04-12T19:06:44.331Z,99700.45
2023-04-12T19:11:49.932Z,99696.05
2023-04-12T19:16:55.375Z,99685.35
2023-04-12T19:22:00.992Z,99675.84
2023-04-12T19:27:06.715Z,99674.02
2023-04-12T19:32:12.678Z,99665.63
2023-04-12T19:37:18.640Z,99660.19
2023-04-12T19:42:24.093Z,99660.19
2023-04-12T19:47:29.647Z,99653.66
2023-04-12T19:52:35.430Z,99652.20
2023-04-12T19:57:41.764Z,99645.87
2023-04-12T20:02:49.269Z,99630.64
2023-04-12T20:07:56.292Z,99630.28
2023-04-12T20:13:02.007Z,99629.05
2023-04-12T20:18:08.736Z,99622.48
2023-04-12T20:23:14.955Z,99610.19
2023-04-12T20:28:21.366Z,99613.39
2023-04-12T20:33:27.524Z,99607.18
2023-04-12T20:38:33.310Z,99598.17
2023-04-12T20:43:46.657Z,99594.41
2023-04-12T20:48:55.180Z,99581.01
2023-04-12T20:54:02.580Z,99596.11
2023-04-12T20:59:08.105Z,99586.37
2023-04-12T21:04:16.010Z,99592.09
2023-04-12T21:09:23.530Z,99589.69
2023-04-12T21:14:29.607Z,99582.50
2023-04-12T21:19:39.907Z,99573.82
2023-04-12T21:24:45.498Z,99568.34
2023-04-12T21:29:51.028Z,99552.91
2023-04-12T21:34:58.150Z,99542.20
2023-04-12T21:40:12.277Z,99537.20
2023-04-12T21:45:17.991Z,99528.33
2023-04-12T21:50:23.563Z,99513.96
2023-04-12T21:55:29.177Z,99492.45
2023-04-12T22:00:35.121Z,99502.07
2023-04-12T22:05:40.611Z,99498.19
2023-04-12T22:10:47.728Z,99508.42
2023-04-12T22:15:53.315Z,99499.77
2023-04-12T22:20:59.644Z,99491.98
2023-04-12T22:26:07.118Z,99489.59
2023-04-12T22:31:18.970Z,99488.14
2023-04-12T22:36:29.778Z,99482.17
2023-04-12T22:41:38.012Z,99486.31
2023-04-12T22:46:45.313Z,99489.48
2023-04-12T22:51:51.182Z,99490.33
2023-04-12T22:56:56.634Z,99501.65
2023-04-12T23:02:02.708Z,99479.62
2023-04-12T23:07:08.510Z,99471.47
2023-04-12T23:12:14.525Z,99458.68
2023-04-12T23:17:19.962Z,99454.78
2023-04-12T23:22:52.537Z,99461.80
2023-04-12T23:27:43.788Z,99471.55
2023-04-12T23:32:49.375Z,99469.45
2023-04-12T23:37:56.175Z,99462.88
2023-04-12T23:43:02.519Z,99466.16
2023-04-12T23:48:08.107Z,99466.65
2023-04-12T23:53:14.277Z,99447.66
2023-04-12T23:58:20.817Z,99450.08
